createdAt,value
2018-01-11T00:01:54.560Z,91.60
2018-01-11T00:04:20.331Z,91.57
2018-01-11T00:06:46.088Z,91.76
2018-01-11T00:09:11.844Z,91.60
2018-01-11T00:11:37.603Z,91.42
2018-01-11T00:14:03.411Z,91.57
2018-01-11T00:16:29.186Z,91.54
2018-01-11T00:18:55.167Z,91.47
2018-01-11T00:21:21.031Z,91.77
2018-01-11T00:23:46.947Z,91.47
2018-01-11T00:26:12.775Z,91.59
2018-01-11T00:28:38.521Z,91.62
2018-01-11T00:31:04.266Z,91.62
2018-01-11T00:33:30.064Z,91.58
2018-01-11T00:35:55.802Z,91.73
2018-01-11T00:38:21.553Z,91.52
2018-01-11T00:40:47.294Z,91.72
2018-01-11T00:43:13.047Z,91.68
2018-01-11T00:45:38.818Z,91.39
2018-01-11T00:48:04.572Z,91.37
2018-01-11T00:50:30.317Z,91.51
2018-01-11T00:52:56.114Z,91.76
2018-01-11T00:55:21.890Z,91.75
2018-01-11T00:57:48.013Z,92.12
2018-01-11T01:00:13.755Z,92.07
2018-01-11T01:02:39.513Z,91.94
2018-01-11T01:05:05.263Z,91.79
2018-01-11T01:07:31.023Z,91.68
2018-01-11T01:09:56.792Z,91.60
2018-01-11T01:12:22.543Z,92.02
2018-01-11T01:14:48.286Z,91.98
2018-01-11T01:17:14.035Z,92.20
2018-01-11T01:19:39.791Z,92.32
2018-01-11T01:22:05.559Z,92.27
2018-01-11T01:24:31.314Z,92.32
2018-01-11T01:26:57.062Z,92.32
2018-01-11T01:29:23.140Z,92.25
2018-01-11T01:31:48.898Z,92.16
2018-01-11T01:34:14.719Z,92.25
2018-01-11T01:36:40.470Z,92.50
2018-01-11T01:39:06.249Z,92.59
2018-01-11T01:41:31.992Z,92.25
2018-01-11T01:43:57.742Z,92.70
2018-01-11T01:46:23.487Z,92.61
2018-01-11T01:48:49.226Z,92.49
2018-01-11T01:51:14.975Z,92.24
2018-01-11T01:53:41.666Z,91.86
2018-01-11T01:56:07.406Z,91.84
2018-01-11T01:58:33.162Z,91.94
2018-01-11T02:00:58.911Z,92.06
2018-01-11T02:03:24.663Z,92.17
2018-01-11T02:05:50.398Z,92.10
2018-01-11T02:08:16.143Z,92.11
2018-01-11T02:10:41.886Z,92.22
2018-01-11T02:13:07.632Z,91.98
2018-01-11T02:15:33.375Z,91.94
2018-01-11T02:17:59.107Z,92.17
2018-01-11T02:20:24.843Z,92.13
2018-01-11T02:22:50.594Z,91.95
2018-01-11T02:25:16.343Z,91.83
2018-01-11T02:27:42.071Z,91.99
2018-01-11T02:30:07.819Z,92.28
2018-01-11T02:32:33.555Z,92.45
2018-01-11T02:34:59.307Z,92.55
2018-01-11T02:37:25.047Z,92.66
2018-01-11T02:39:50.806Z,92.68
2018-01-11T02:42:16.552Z,92.61
2018-01-11T02:44:42.314Z,92.60
2018-01-11T02:47:08.058Z,92.46
2018-01-11T02:49:33.807Z,92.57
2018-01-11T02:51:59.554Z,92.55
2018-01-11T02:54:25.289Z,92.55
2018-01-11T02:56:51.046Z,92.51
2018-01-11T02:59:16.798Z,92.59
2018-01-11T03:01:42.547Z,92.42
2018-01-11T03:04:08.270Z,93.09
2018-01-11T03:06:34.014Z,93.33
2018-01-11T03:08:59.746Z,93.21
2018-01-11T03:11:25.486Z,93.32
2018-01-11T03:13:51.222Z,93.05
2018-01-11T03:16:16.971Z,93.24
2018-01-11T03:18:42.713Z,93.67
2018-01-11T03:21:08.470Z,93.65
2018-01-11T03:23:34.214Z,93.31
2018-01-11T03:25:59.963Z,92.91
2018-01-11T03:28:25.698Z,92.77
2018-01-11T03:30:51.460Z,92.70
2018-01-11T03:33:17.190Z,92.75
2018-01-11T03:35:42.919Z,92.79
2018-01-11T03:38:08.653Z,92.57
2018-01-11T03:40:34.386Z,92.63
2018-01-11T03:43:00.130Z,92.57
2018-01-11T03:45:25.891Z,92.61
2018-01-11T03:47:51.646Z,92.52
2018-01-11T03:50:17.402Z,92.61
2018-01-11T03:52:43.163Z,92.95
2018-01-11T03:55:08.912Z,93.32
2018-01-11T03:57:34.657Z,92.90
2018-01-11T04:00:00.383Z,92.81
2018-01-11T04:02:26.126Z,92.97
2018-01-11T04:04:51.858Z,93.07
2018-01-11T04:07:17.609Z,92.83
2018-01-11T04:09:44.136Z,92.87
2018-01-11T04:12:09.878Z,92.71
2018-01-11T04:14:35.635Z,92.76
2018-01-11T04:17:01.382Z,92.49
2018-01-11T04:19:27.122Z,92.71
2018-01-11T04:21:52.870Z,92.57
2018-01-11T04:24:18.643Z,92.77
2018-01-11T04:26:44.388Z,92.92
2018-01-11T04:29:10.142Z,92.99
2018-01-11T04:31:35.895Z,92.68
2018-01-11T04:34:01.664Z,92.36
2018-01-11T04:36:27.418Z,92.40
2018-01-11T04:38:53.174Z,92.53
2018-01-11T04:41:18.930Z,92.77
2018-01-11T04:43:44.689Z,92.91
2018-01-11T04:46:10.442Z,92.78
2018-01-11T04:48:36.194Z,92.71
2018-01-11T04:51:01.941Z,92.79
2018-01-11T04:53:27.679Z,93.33
2018-01-11T04:55:53.421Z,93.52
2018-01-11T04:58:19.158Z,93.65
2018-01-11T05:00:50.803Z,93.54
2018-01-11T05:03:16.545Z,93.85
2018-01-11T05:05:42.293Z,94.11
2018-01-11T05:08:08.023Z,94.17
2018-01-11T05:10:33.768Z,94.26
2018-01-11T05:12:59.504Z,94.31
2018-01-11T05:15:25.242Z,94.29
2018-01-11T05:17:50.988Z,94.40
2018-01-11T05:20:16.747Z,94.10
2018-01-11T05:22:42.486Z,93.72
2018-01-11T05:25:08.239Z,93.70
2018-01-11T05:27:33.982Z,93.97
2018-01-11T05:29:59.730Z,94.18
2018-01-11T05:32:25.532Z,94.12
2018-01-11T05:34:51.326Z,93.95
2018-01-11T05:37:17.076Z,93.98
2018-01-11T05:39:42.819Z,93.71
2018-01-11T05:42:08.559Z,93.91
2018-01-11T05:44:34.303Z,94.29
2018-01-11T05:47:00.068Z,94.03
2018-01-11T05:49:25.875Z,93.94
2018-01-11T05:51:51.599Z,93.88
2018-01-11T05:54:17.354Z,93.73
2018-01-11T05:56:43.114Z,93.46
2018-01-11T05:59:08.868Z,93.59
2018-01-11T06:01:34.642Z,93.73
2018-01-11T06:04:00.387Z,93.50
2018-01-11T06:06:26.160Z,93.41
2018-01-11T06:08:51.900Z,93.24
2018-01-11T06:11:17.685Z,93.30
2018-01-11T06:13:43.412Z,93.32
2018-01-11T06:16:09.162Z,93.26
2018-01-11T06:18:34.908Z,93.21
2018-01-11T06:21:00.638Z,93.12
2018-01-11T06:23:26.407Z,93.13
2018-01-11T06:25:52.147Z,92.93
2018-01-11T06:28:17.892Z,93.63
2018-01-11T06:30:43.630Z,93.89
2018-01-11T06:33:09.381Z,93.40
2018-01-11T06:35:35.131Z,93.49
2018-01-11T06:38:00.889Z,93.21
2018-01-11T06:40:26.642Z,93.23
2018-01-11T06:42:52.390Z,93.29
2018-01-11T06:45:18.126Z,93.35
2018-01-11T06:47:43.871Z,93.45
2018-01-11T06:50:09.608Z,93.34
2018-01-11T06:52:35.366Z,93.56
2018-01-11T06:55:01.108Z,93.47
2018-01-11T06:57:26.847Z,93.16
2018-01-11T06:59:52.591Z,93.10
2018-01-11T07:02:18.326Z,93.30
2018-01-11T07:04:44.099Z,93.32
2018-01-11T07:07:09.842Z,93.15
2018-01-11T07:09:35.611Z,93.21
2018-01-11T07:12:01.359Z,93.22
2018-01-11T07:14:27.102Z,93.44
2018-01-11T07:16:52.838Z,93.89
2018-01-11T07:19:18.592Z,94.28
2018-01-11T07:21:44.330Z,93.86
2018-01-11T07:24:10.074Z,93.48
2018-01-11T07:26:35.819Z,93.20
2018-01-11T07:29:01.575Z,93.32
2018-01-11T07:31:27.306Z,93.28
2018-01-11T07:33:53.039Z,93.90
2018-01-11T07:36:18.790Z,94.22
2018-01-11T07:38:44.522Z,93.95
2018-01-11T07:41:10.270Z,93.91
2018-01-11T07:43:35.999Z,94.17
2018-01-11T07:46:01.786Z,94.18
2018-01-11T07:48:27.527Z,94.03
2018-01-11T07:50:53.283Z,93.73
2018-01-11T07:53:19.032Z,93.80
2018-01-11T07:55:44.785Z,93.59
2018-01-11T07:58:10.530Z,93.37
2018-01-11T08:00:36.279Z,93.33
2018-01-11T08:03:02.031Z,93.31
2018-01-11T08:05:27.795Z,93.45
2018-01-11T08:07:53.539Z,93.63
2018-01-11T08:10:19.291Z,93.52
2018-01-11T08:12:45.071Z,93.54
2018-01-11T08:15:10.823Z,93.18
2018-01-11T08:17:36.586Z,92.92
2018-01-11T08:20:02.352Z,92.98
2018-01-11T08:22:28.122Z,93.46
2018-01-11T08:24:53.867Z,93.75
2018-01-11T08:27:19.618Z,93.86
2018-01-11T08:29:45.383Z,93.80
2018-01-11T08:32:11.147Z,93.72
2018-01-11T08:34:36.899Z,93.57
2018-01-11T08:37:02.660Z,93.46
2018-01-11T08:39:28.422Z,93.64
2018-01-11T08:41:54.186Z,93.68
2018-01-11T08:44:19.931Z,93.53
2018-01-11T08:46:45.691Z,93.27
2018-01-11T08:49:11.438Z,92.92
2018-01-11T08:51:37.211Z,93.12
2018-01-11T08:54:02.975Z,93.31
2018-01-11T08:56:28.734Z,93.56
2018-01-11T08:58:54.488Z,93.54
2018-01-11T09:01:20.235Z,93.59
2018-01-11T09:03:45.995Z,93.43
2018-01-11T09:06:11.746Z,93.39
2018-01-11T09:08:37.518Z,93.34
2018-01-11T09:11:03.274Z,93.52
2018-01-11T09:13:29.031Z,93.45
2018-01-11T09:15:54.787Z,93.66
2018-01-11T09:18:20.557Z,93.74
2018-01-11T09:20:46.303Z,93.51
2018-01-11T09:23:12.055Z,93.25
2018-01-11T09:25:37.803Z,92.91
2018-01-11T09:28:03.566Z,93.22
2018-01-11T09:30:29.314Z,93.17
2018-01-11T09:32:55.071Z,93.31
2018-01-11T09:35:20.823Z,92.91
2018-01-11T09:37:46.586Z,92.84
2018-01-11T09:40:12.339Z,92.94
2018-01-11T09:42:38.106Z,92.86
2018-01-11T09:45:03.855Z,92.83
2018-01-11T09:47:29.594Z,93.01
2018-01-11T09:49:55.352Z,92.88
2018-01-11T09:52:21.091Z,92.96
2018-01-11T09:54:46.865Z,92.99
2018-01-11T09:57:12.607Z,92.72
2018-01-11T09:59:38.351Z,92.65
2018-01-11T10:02:04.095Z,92.73
2018-01-11T10:04:29.840Z,92.58
2018-01-11T10:06:55.586Z,92.70
2018-01-11T10:09:21.332Z,92.64
2018-01-11T10:11:47.059Z,92.62
2018-01-11T10:14:12.831Z,92.53
2018-01-11T10:16:38.583Z,92.49
2018-01-11T10:19:04.327Z,92.41
2018-01-11T10:21:30.098Z,92.26
2018-01-11T10:23:55.858Z,92.08
2018-01-11T10:26:21.615Z,92.36
2018-01-11T10:28:47.392Z,92.49
2018-01-11T10:31:13.143Z,92.42
2018-01-11T10:33:38.878Z,92.45
2018-01-11T10:36:04.644Z,92.72
2018-01-11T10:38:30.404Z,92.69
2018-01-11T10:40:56.166Z,92.73
2018-01-11T10:43:21.915Z,92.82
2018-01-11T10:45:47.673Z,93.04
2018-01-11T10:48:13.411Z,93.08
2018-01-11T10:50:39.163Z,93.61
2018-01-11T10:53:04.910Z,94.13
2018-01-11T10:55:30.663Z,94.24
2018-01-11T10:57:56.407Z,94.83
2018-01-11T11:00:22.162Z,94.90
2018-01-11T11:02:48.786Z,94.91
2018-01-11T11:05:14.527Z,95.31
2018-01-11T11:07:40.262Z,95.65
2018-01-11T11:10:06.006Z,96.02
2018-01-11T11:12:31.747Z,95.98
2018-01-11T11:14:57.483Z,96.14
2018-01-11T11:17:23.267Z,96.22
2018-01-11T11:19:49.004Z,96.30
2018-01-11T11:22:14.763Z,96.35
2018-01-11T11:24:40.510Z,96.36
2018-01-11T11:27:06.247Z,96.32
2018-01-11T11:29:31.994Z,96.30
2018-01-11T11:31:57.754Z,96.29
2018-01-11T11:34:23.717Z,96.40
2018-01-11T11:36:49.490Z,96.43
2018-01-11T11:39:15.230Z,96.52
2018-01-11T11:41:40.994Z,96.52
2018-01-11T11:44:06.751Z,96.51
2018-01-11T11:46:32.532Z,96.45
2018-01-11T11:48:58.266Z,96.44
2018-01-11T11:51:24.011Z,96.49
2018-01-11T11:53:49.759Z,96.50
2018-01-11T11:56:15.500Z,96.48
2018-01-11T11:58:41.255Z,96.58
2018-01-11T12:01:07.007Z,96.55
2018-01-11T12:03:32.765Z,96.57
2018-01-11T12:05:58.522Z,96.51
2018-01-11T12:08:24.285Z,96.57
2018-01-11T12:10:50.095Z,96.77
2018-01-11T12:13:15.882Z,96.93
2018-01-11T12:15:41.634Z,97.08
2018-01-11T12:18:07.415Z,97.23
2018-01-11T12:20:33.154Z,97.41
2018-01-11T12:22:58.911Z,97.60
2018-01-11T12:25:24.655Z,97.74
2018-01-11T12:27:50.399Z,97.78
2018-01-11T12:30:16.131Z,97.81
2018-01-11T12:32:41.887Z,97.82
2018-01-11T12:35:07.631Z,97.89
2018-01-11T12:37:33.388Z,97.99
2018-01-11T12:39:59.304Z,98.05
2018-01-11T12:42:25.054Z,98.05
2018-01-11T12:44:50.857Z,98.04
2018-01-11T12:47:16.566Z,97.99
2018-01-11T12:49:42.310Z,97.90
2018-01-11T12:52:08.043Z,97.87
2018-01-11T12:54:33.815Z,97.85
2018-01-11T12:56:59.562Z,97.85
2018-01-11T12:59:25.298Z,97.79
2018-01-11T13:01:51.111Z,97.79
2018-01-11T13:04:16.867Z,97.77
2018-01-11T13:06:42.616Z,97.72
2018-01-11T13:09:08.406Z,97.70
2018-01-11T13:11:34.146Z,97.67
2018-01-11T13:13:59.910Z,97.76
2018-01-11T13:16:25.655Z,97.78
2018-01-11T13:18:51.394Z,97.81
2018-01-11T13:21:17.148Z,97.88
2018-01-11T13:23:42.892Z,97.91
2018-01-11T13:26:08.645Z,97.93
2018-01-11T13:28:34.403Z,97.94
2018-01-11T13:31:00.163Z,97.95
2018-01-11T13:33:25.935Z,97.96
2018-01-11T13:35:51.685Z,97.97
2018-01-11T13:38:17.425Z,97.95
2018-01-11T13:40:43.176Z,97.97
2018-01-11T13:43:08.902Z,97.95
2018-01-11T13:45:34.668Z,97.91
2018-01-11T13:48:00.423Z,97.92
2018-01-11T13:50:26.175Z,97.83
2018-01-11T13:52:51.911Z,97.79
2018-01-11T13:55:17.670Z,97.76
2018-01-11T13:57:43.418Z,97.72
2018-01-11T14:00:09.183Z,97.69
2018-01-11T14:02:34.931Z,97.67
2018-01-11T14:05:00.723Z,97.67
2018-01-11T14:07:26.467Z,97.66
2018-01-11T14:09:52.214Z,97.63
2018-01-11T14:12:17.967Z,97.60
2018-01-11T14:14:43.715Z,97.59
2018-01-11T14:17:09.466Z,97.58
2018-01-11T14:19:35.211Z,97.51
2018-01-11T14:22:00.958Z,97.45
2018-01-11T14:24:26.703Z,97.48
2018-01-11T14:26:52.470Z,97.43
2018-01-11T14:29:18.220Z,97.43
2018-01-11T14:31:43.970Z,97.47
2018-01-11T14:34:09.722Z,97.47
2018-01-11T14:36:35.471Z,97.47
2018-01-11T14:39:01.218Z,97.45
2018-01-11T14:41:26.983Z,97.48
2018-01-11T14:43:52.739Z,97.51
2018-01-11T14:46:18.618Z,97.51
2018-01-11T14:48:44.394Z,97.51
2018-01-11T14:51:10.159Z,97.54
2018-01-11T14:53:35.907Z,97.52
2018-01-11T14:56:01.659Z,97.55
2018-01-11T14:58:27.421Z,97.55
2018-01-11T15:00:53.184Z,97.53
2018-01-11T15:03:18.935Z,97.54
2018-01-11T15:05:44.669Z,97.50
2018-01-11T15:08:10.423Z,97.49
2018-01-11T15:10:36.171Z,97.48
2018-01-11T15:13:01.922Z,97.51
2018-01-11T15:15:27.825Z,97.52
2018-01-11T15:17:53.566Z,97.50
2018-01-11T15:20:19.307Z,97.42
2018-01-11T15:22:45.059Z,97.45
2018-01-11T15:25:10.802Z,97.39
2018-01-11T15:27:36.548Z,97.46
2018-01-11T15:30:02.287Z,97.49
2018-01-11T15:32:28.054Z,97.52
2018-01-11T15:34:53.913Z,97.47
2018-01-11T15:37:19.875Z,97.46
2018-01-11T15:39:45.740Z,97.45
2018-01-11T15:42:11.467Z,97.37
2018-01-11T15:44:37.231Z,97.32
2018-01-11T15:47:02.987Z,97.30
2018-01-11T15:49:28.731Z,97.26
2018-01-11T15:51:54.471Z,97.15
2018-01-11T15:54:20.230Z,97.23
2018-01-11T15:56:45.966Z,97.21
2018-01-11T15:59:11.719Z,97.24
2018-01-11T16:01:37.454Z,97.17
2018-01-11T16:04:03.206Z,97.14
2018-01-11T16:06:28.942Z,97.17
2018-01-11T16:08:54.697Z,97.18
2018-01-11T16:11:20.493Z,97.20
2018-01-11T16:13:46.229Z,97.20
2018-01-11T16:16:12.072Z,97.13
2018-01-11T16:18:37.802Z,97.30
2018-01-11T16:21:03.555Z,97.12
2018-01-11T16:23:29.346Z,97.10
2018-01-11T16:25:55.094Z,97.24
2018-01-11T16:28:20.827Z,97.21
2018-01-11T16:30:46.579Z,96.96
2018-01-11T16:33:12.334Z,97.12
2018-01-11T16:35:38.115Z,97.02
2018-01-11T16:38:03.867Z,97.11
2018-01-11T16:40:29.652Z,97.05
2018-01-11T16:42:55.395Z,96.99
2018-01-11T16:45:21.300Z,97.15
2018-01-11T16:47:47.208Z,97.09
2018-01-11T16:50:12.946Z,97.03
2018-01-11T16:52:38.702Z,96.83
2018-01-11T16:55:04.494Z,96.63
2018-01-11T16:57:30.257Z,96.48
2018-01-11T16:59:56.015Z,96.48
2018-01-11T17:02:21.817Z,95.85
2018-01-11T17:04:47.550Z,95.00
2018-01-11T17:07:13.302Z,94.93
2018-01-11T17:09:39.051Z,94.96
2018-01-11T17:12:04.808Z,95.26
2018-01-11T17:14:30.563Z,95.34
2018-01-11T17:16:56.322Z,94.98
2018-01-11T17:19:22.071Z,94.79
2018-01-11T17:21:47.834Z,94.99
2018-01-11T17:24:13.595Z,94.96
2018-01-11T17:26:39.364Z,95.05
2018-01-11T17:29:05.112Z,94.93
2018-01-11T17:31:30.945Z,95.01
2018-01-11T17:33:56.718Z,95.23
2018-01-11T17:36:22.464Z,95.43
2018-01-11T17:38:48.218Z,95.13
2018-01-11T17:41:13.979Z,95.46
2018-01-11T17:43:39.754Z,95.34
2018-01-11T17:46:05.522Z,95.36
2018-01-11T17:48:31.321Z,95.69
2018-01-11T17:50:57.058Z,95.51
2018-01-11T17:53:22.814Z,95.71
2018-01-11T17:55:48.571Z,95.76
2018-01-11T17:58:14.335Z,95.39
2018-01-11T18:00:40.127Z,95.66
2018-01-11T18:03:05.875Z,95.55
2018-01-11T18:05:31.627Z,95.90
2018-01-11T18:07:57.421Z,95.81
2018-01-11T18:10:23.158Z,95.82
2018-01-11T18:12:48.946Z,95.91
2018-01-11T18:15:14.678Z,96.00
2018-01-11T18:17:40.423Z,95.63
2018-01-11T18:20:06.155Z,95.70
2018-01-11T18:22:31.911Z,95.73
2018-01-11T18:24:57.655Z,95.93
2018-01-11T18:27:23.391Z,95.96
2018-01-11T18:29:49.184Z,95.77
2018-01-11T18:32:14.919Z,96.05
2018-01-11T18:34:40.730Z,96.08
2018-01-11T18:37:06.477Z,95.97
2018-01-11T18:39:32.242Z,95.87
2018-01-11T18:41:57.976Z,96.34
2018-01-11T18:44:23.730Z,96.01
2018-01-11T18:46:49.501Z,96.18
2018-01-11T18:49:15.266Z,95.99
2018-01-11T18:51:40.998Z,96.32
2018-01-11T18:54:13.839Z,96.36
2018-01-11T18:56:39.572Z,96.33
2018-01-11T18:59:05.320Z,96.36
2018-01-11T19:01:31.054Z,96.48
2018-01-11T19:03:56.810Z,96.45
2018-01-11T19:06:22.563Z,96.52
2018-01-11T19:08:48.319Z,96.64
2018-01-11T19:11:14.080Z,96.68
2018-01-11T19:13:39.822Z,96.71
2018-01-11T19:16:05.563Z,96.69
2018-01-11T19:18:31.293Z,96.71
2018-01-11T19:20:57.043Z,96.82
2018-01-11T19:23:22.796Z,96.88
2018-01-11T19:25:48.562Z,96.89
2018-01-11T19:28:14.311Z,96.95
2018-01-11T19:30:40.084Z,96.99
2018-01-11T19:33:05.839Z,96.92
2018-01-11T19:35:31.578Z,96.91
2018-01-11T19:37:57.315Z,96.96
2018-01-11T19:40:23.110Z,96.95
2018-01-11T19:42:48.887Z,96.93
2018-01-11T19:45:15.932Z,97.00
2018-01-11T19:47:41.682Z,96.95
2018-01-11T19:50:07.441Z,96.96
2018-01-11T19:52:33.303Z,96.85
2018-01-11T19:54:59.014Z,96.83
2018-01-11T19:57:24.765Z,96.79
2018-01-11T19:59:50.512Z,96.76
2018-01-11T20:02:16.272Z,96.71
2018-01-11T20:04:42.022Z,96.66
2018-01-11T20:07:07.787Z,96.72
2018-01-11T20:09:33.583Z,96.67
2018-01-11T20:11:59.342Z,96.69
2018-01-11T20:14:25.075Z,96.63
2018-01-11T20:16:50.835Z,96.53
2018-01-11T20:19:16.588Z,96.26
2018-01-11T20:21:42.350Z,96.10
2018-01-11T20:24:08.115Z,95.90
2018-01-11T20:26:33.872Z,95.98
2018-01-11T20:28:59.623Z,96.17
2018-01-11T20:31:25.371Z,95.99
2018-01-11T20:33:51.120Z,95.89
2018-01-11T20:36:16.895Z,95.84
2018-01-11T20:38:42.635Z,95.77
2018-01-11T20:41:08.398Z,95.86
2018-01-11T20:43:34.138Z,95.73
2018-01-11T20:45:59.878Z,95.85
2018-01-11T20:48:25.626Z,95.99
2018-01-11T20:50:51.376Z,96.07
2018-01-11T20:53:17.123Z,96.15
2018-01-11T20:55:42.862Z,96.46
2018-01-11T20:58:08.607Z,96.33
2018-01-11T21:00:34.436Z,96.50
2018-01-11T21:03:00.207Z,96.59
2018-01-11T21:05:25.987Z,96.44
2018-01-11T21:07:51.743Z,96.66
2018-01-11T21:10:17.495Z,96.54
2018-01-11T21:12:43.250Z,96.50
2018-01-11T21:15:09.004Z,96.29
2018-01-11T21:17:34.766Z,96.51
2018-01-11T21:20:00.519Z,96.33
2018-01-11T21:22:26.330Z,96.38
2018-01-11T21:24:52.087Z,96.21
2018-01-11T21:27:17.875Z,96.17
2018-01-11T21:29:44.155Z,96.29
2018-01-11T21:32:09.979Z,96.29
2018-01-11T21:34:35.730Z,96.22
2018-01-11T21:37:01.536Z,96.29
2018-01-11T21:39:27.276Z,96.20
2018-01-11T21:41:53.072Z,95.93
2018-01-11T21:44:18.818Z,95.89
2018-01-11T21:46:44.574Z,95.80
2018-01-11T21:49:10.331Z,96.01
2018-01-11T21:51:36.219Z,95.69
2018-01-11T21:54:01.975Z,95.75
2018-01-11T21:56:27.721Z,95.98
2018-01-11T21:58:54.210Z,96.18
2018-01-11T22:01:19.955Z,96.25
2018-01-11T22:03:45.699Z,96.24
2018-01-11T22:06:11.452Z,96.19
2018-01-11T22:08:37.278Z,96.17
2018-01-11T22:11:03.046Z,95.93
2018-01-11T22:13:28.811Z,95.71
2018-01-11T22:15:54.647Z,95.67
2018-01-11T22:18:20.398Z,95.78
2018-01-11T22:20:46.156Z,95.67
2018-01-11T22:23:11.918Z,95.71
2018-01-11T22:25:37.683Z,95.58
2018-01-11T22:28:03.442Z,95.71
2018-01-11T22:30:29.228Z,95.52
2018-01-11T22:32:54.974Z,95.63
2018-01-11T22:35:21.039Z,95.60
2018-01-11T22:37:46.778Z,95.63
2018-01-11T22:40:12.527Z,95.54
2018-01-11T22:42:38.383Z,95.72
2018-01-11T22:45:04.147Z,95.11
2018-01-11T22:47:29.922Z,95.36
2018-01-11T22:49:56.005Z,95.25
2018-01-11T22:52:21.751Z,95.17
2018-01-11T22:54:47.516Z,95.32
2018-01-11T22:57:13.258Z,95.11
2018-01-11T22:59:38.991Z,95.46
2018-01-11T23:02:05.142Z,95.59
2018-01-11T23:04:31.259Z,95.38
2018-01-11T23:06:57.008Z,95.12
2018-01-11T23:09:23.873Z,95.28
2018-01-11T23:11:49.614Z,95.25
2018-01-11T23:14:15.359Z,95.10
2018-01-11T23:16:41.124Z,94.91
2018-01-11T23:19:06.860Z,94.88
2018-01-11T23:21:32.618Z,94.80
2018-01-11T23:23:58.462Z,94.73
2018-01-11T23:26:24.617Z,95.33
2018-01-11T23:28:50.498Z,95.25
2018-01-11T23:31:16.251Z,94.88
2018-01-11T23:33:41.987Z,94.79
2018-01-11T23:36:07.735Z,95.15
2018-01-11T23:38:33.466Z,94.71
2018-01-11T23:40:59.227Z,94.79
2018-01-11T23:43:25.005Z,94.78
2018-01-11T23:45:50.765Z,95.07
2018-01-11T23:48:16.531Z,95.04
2018-01-11T23:50:42.275Z,95.26
2018-01-11T23:53:08.019Z,95.14
2018-01-11T23:55:33.761Z,94.90
2018-01-11T23:57:59.506Z,95.04
